createdAt,value
2017-04-15T00:00:56.030Z,999.24
2017-04-15T00:01:56.065Z,999.2
2017-04-15T00:02:56.104Z,999.21
2017-04-15T00:03:56.137Z,999.18
2017-04-15T00:04:56.174Z,999.14
2017-04-15T00:05:56.210Z,999.18
2017-04-15T00:06:56.246Z,999.18
2017-04-15T00:07:56.281Z,999.17
2017-04-15T00:08:56.334Z,999.17
2017-04-15T00:09:56.355Z,999.2
2017-04-15T00:10:56.393Z,999.19
2017-04-15T00:11:56.427Z,999.18
2017-04-15T00:12:56.464Z,999.2
2017-04-15T00:13:56.501Z,999.18
2017-04-15T00:14:56.537Z,999.18
2017-04-15T00:15:56.573Z,999.21
2017-04-15T00:16:56.608Z,999.24
2017-04-15T00:17:56.646Z,999.22
2017-04-15T00:18:56.681Z,999.2
2017-04-15T00:19:56.718Z,999.21
2017-04-15T00:20:56.754Z,999.19
2017-04-15T00:21:56.791Z,999.21
2017-04-15T00:22:56.826Z,999.2
2017-04-15T00:23:56.862Z,999.21
2017-04-15T00:24:56.900Z,999.2
2017-04-15T00:25:56.936Z,999.17
2017-04-15T00:26:56.972Z,999.21
2017-04-15T00:27:57.009Z,999.19
2017-04-15T00:28:57.044Z,999.16
2017-04-15T00:29:57.080Z,999.15
2017-04-15T00:30:57.117Z,999.15
2017-04-15T00:31:57.157Z,999.13
2017-04-15T00:32:57.190Z,999.12
2017-04-15T00:33:57.225Z,999.1
2017-04-15T00:34:57.261Z,999.09
2017-04-15T00:35:57.299Z,999.08
2017-04-15T00:36:57.336Z,999.08
2017-04-15T00:37:57.370Z,999.08
2017-04-15T00:38:57.407Z,999.06
2017-04-15T00:39:57.443Z,999.02
2017-04-15T00:40:57.479Z,999.04
2017-04-15T00:41:57.516Z,999.05
2017-04-15T00:42:57.553Z,998.99
2017-04-15T00:43:57.588Z,998.99
2017-04-15T00:44:57.623Z,998.93
2017-04-15T00:45:57.660Z,998.97
2017-04-15T00:46:57.696Z,998.94
2017-04-15T00:47:57.732Z,998.94
2017-04-15T00:48:57.770Z,998.95
2017-04-15T00:49:57.804Z,998.93
2017-04-15T00:50:57.840Z,998.93
2017-04-15T00:51:57.876Z,998.9
2017-04-15T00:52:57.914Z,998.88
2017-04-15T00:53:57.950Z,998.9
2017-04-15T00:54:57.987Z,998.88
2017-04-15T00:55:58.020Z,998.9
2017-04-15T00:56:58.057Z,998.89
2017-04-15T00:57:58.096Z,998.89
2017-04-15T00:58:58.132Z,998.9
2017-04-15T00:59:58.167Z,998.92
2017-04-15T01:00:58.203Z,998.87
2017-04-15T01:01:58.239Z,998.89
2017-04-15T01:02:58.276Z,998.88
2017-04-15T01:03:58.311Z,998.85
2017-04-15T01:04:58.348Z,998.87
2017-04-15T01:05:58.384Z,998.88
2017-04-15T01:06:58.420Z,998.84
2017-04-15T01:07:58.455Z,998.85
2017-04-15T01:08:58.493Z,998.86
2017-04-15T01:09:58.528Z,998.84
2017-04-15T01:10:58.564Z,998.83
2017-04-15T01:11:58.600Z,998.85
2017-04-15T01:12:58.638Z,998.82
2017-04-15T01:13:58.672Z,998.79
2017-04-15T01:14:58.710Z,998.86
2017-04-15T01:15:58.745Z,998.83
2017-04-15T01:16:58.781Z,998.84
2017-04-15T01:17:58.819Z,998.8
2017-04-15T01:18:58.854Z,998.79
2017-04-15T01:19:58.890Z,998.77
2017-04-15T01:20:58.927Z,998.79
2017-04-15T01:21:58.961Z,998.78
2017-04-15T01:22:58.998Z,998.79
2017-04-15T01:23:59.045Z,998.78
2017-04-15T01:24:59.072Z,998.76
2017-04-15T01:25:59.107Z,998.78
2017-04-15T01:26:59.142Z,998.77
2017-04-15T01:27:59.182Z,998.77
2017-04-15T01:28:59.216Z,998.75
2017-04-15T01:29:59.250Z,998.76
2017-04-15T01:30:59.289Z,998.76
2017-04-15T01:31:59.324Z,998.74
2017-04-15T01:32:59.366Z,998.76
2017-04-15T01:33:59.397Z,998.82
2017-04-15T01:34:59.434Z,998.79
2017-04-15T01:35:59.468Z,998.8
2017-04-15T01:36:59.506Z,998.77
2017-04-15T01:37:59.542Z,998.75
2017-04-15T01:38:59.578Z,998.78
2017-04-15T01:39:59.613Z,998.78
2017-04-15T01:40:59.651Z,998.8
2017-04-15T01:41:59.686Z,998.75
2017-04-15T01:42:59.721Z,998.76
2017-04-15T01:43:59.758Z,998.73
2017-04-15T01:44:59.794Z,998.75
2017-04-15T01:45:59.831Z,998.75
2017-04-15T01:46:59.867Z,998.77
2017-04-15T01:47:59.902Z,998.76
2017-04-15T01:48:59.938Z,998.78
2017-04-15T01:49:59.975Z,998.72
2017-04-15T01:51:00.011Z,998.74
2017-04-15T01:52:00.047Z,998.75
2017-04-15T01:53:00.084Z,998.72
2017-04-15T01:54:00.119Z,998.7
2017-04-15T01:55:00.155Z,998.73
2017-04-15T01:56:00.192Z,998.72
2017-04-15T01:57:00.227Z,998.71
2017-04-15T01:58:00.263Z,998.69
2017-04-15T01:59:00.299Z,998.67
2017-04-15T02:00:00.336Z,998.64
2017-04-15T02:01:00.372Z,998.66
2017-04-15T02:02:00.408Z,998.62
2017-04-15T02:03:00.444Z,998.62
2017-04-15T02:04:00.480Z,998.6
2017-04-15T02:05:00.514Z,998.59
2017-04-15T02:06:00.551Z,998.6
2017-04-15T02:07:00.588Z,998.57
2017-04-15T02:08:00.623Z,998.57
2017-04-15T02:09:00.662Z,998.55
2017-04-15T02:10:00.701Z,998.56
2017-04-15T02:11:00.740Z,998.52
2017-04-15T02:12:00.768Z,998.57
2017-04-15T02:13:00.802Z,998.52
2017-04-15T02:14:00.840Z,998.54
2017-04-15T02:15:00.876Z,998.5
2017-04-15T02:16:00.911Z,998.51
2017-04-15T02:17:00.946Z,998.52
2017-04-15T02:18:00.982Z,998.51
2017-04-15T02:19:01.019Z,998.54
2017-04-15T02:20:01.059Z,998.53
2017-04-15T02:21:01.091Z,998.53
2017-04-15T02:22:01.128Z,998.48
2017-04-15T02:23:01.163Z,998.48
2017-04-15T02:24:01.199Z,998.47
2017-04-15T02:25:01.235Z,998.45
2017-04-15T02:26:01.272Z,998.48
2017-04-15T02:27:01.307Z,998.42
2017-04-15T02:28:01.343Z,998.44
2017-04-15T02:29:01.379Z,998.44
2017-04-15T02:30:01.416Z,998.47
2017-04-15T02:31:01.451Z,998.42
2017-04-15T02:32:01.488Z,998.38
2017-04-15T02:33:01.523Z,998.4
2017-04-15T02:34:01.560Z,998.35
2017-04-15T02:35:01.596Z,998.35
2017-04-15T02:36:01.632Z,998.34
2017-04-15T02:37:01.667Z,998.36
2017-04-15T02:38:01.703Z,998.33
2017-04-15T02:39:01.739Z,998.36
2017-04-15T02:40:01.776Z,998.27
2017-04-15T02:41:01.812Z,998.3
2017-04-15T02:42:01.847Z,998.3
2017-04-15T02:43:01.883Z,998.25
2017-04-15T02:44:01.919Z,998.26
2017-04-15T02:45:01.955Z,998.31
2017-04-15T02:46:01.991Z,998.32
2017-04-15T02:47:02.026Z,998.33
2017-04-15T02:48:02.063Z,998.31
2017-04-15T02:49:02.101Z,998.28
2017-04-15T02:50:02.135Z,998.25
2017-04-15T02:51:02.170Z,998.31
2017-04-15T02:52:02.208Z,998.27
2017-04-15T02:53:02.243Z,998.26
2017-04-15T02:54:02.279Z,998.25
2017-04-15T02:55:02.321Z,998.23
2017-04-15T02:56:02.351Z,998.22
2017-04-15T02:57:02.386Z,998.21
2017-04-15T02:58:02.422Z,998.2
2017-04-15T02:59:02.458Z,998.22
2017-04-15T03:00:02.494Z,998.2
2017-04-15T03:01:02.530Z,998.16
2017-04-15T03:02:02.566Z,998.15
2017-04-15T03:03:02.602Z,998.16
2017-04-15T03:04:02.642Z,998.13
2017-04-15T03:05:02.678Z,998.14
2017-04-15T03:06:02.710Z,998.13
2017-04-15T03:07:02.746Z,998.13
2017-04-15T03:08:02.782Z,998.14
2017-04-15T03:09:02.819Z,998.1
2017-04-15T03:10:02.856Z,998.09
2017-04-15T03:11:02.903Z,998.11
2017-04-15T03:12:02.925Z,998.09
2017-04-15T03:13:02.962Z,998.1
2017-04-15T03:14:02.999Z,998.05
2017-04-15T03:15:03.035Z,998.1
2017-04-15T03:16:03.070Z,998.07
2017-04-15T03:17:03.106Z,998.05
2017-04-15T03:18:03.143Z,998.05
2017-04-15T03:19:03.177Z,998.05
2017-04-15T03:20:03.213Z,998.02
2017-04-15T03:21:03.250Z,998
2017-04-15T03:22:03.285Z,997.96
2017-04-15T03:23:03.321Z,997.96
2017-04-15T03:24:03.358Z,997.95
2017-04-15T03:25:03.398Z,997.93
2017-04-15T03:26:03.429Z,997.99
2017-04-15T03:27:03.464Z,997.93
2017-04-15T03:28:03.501Z,997.92
2017-04-15T03:29:03.536Z,997.93
2017-04-15T03:30:03.572Z,997.9
2017-04-15T03:31:03.608Z,997.91
2017-04-15T03:32:03.645Z,997.91
2017-04-15T03:33:03.680Z,997.9
2017-04-15T03:34:03.717Z,997.9
2017-04-15T03:35:03.752Z,997.87
2017-04-15T03:36:03.789Z,997.88
2017-04-15T03:37:03.823Z,997.83
2017-04-15T03:38:03.860Z,997.84
2017-04-15T03:39:03.897Z,997.8
2017-04-15T03:40:03.932Z,997.81
2017-04-15T03:41:03.967Z,997.8
2017-04-15T03:42:04.003Z,997.8
2017-04-15T03:43:04.039Z,997.82
2017-04-15T03:44:04.075Z,997.79
2017-04-15T03:45:04.112Z,997.76
2017-04-15T03:46:04.148Z,997.74
2017-04-15T03:47:04.187Z,997.77
2017-04-15T03:48:04.220Z,997.77
2017-04-15T03:49:04.259Z,997.76
2017-04-15T03:50:04.290Z,997.75
2017-04-15T03:51:04.326Z,997.75
2017-04-15T03:52:04.361Z,997.73
2017-04-15T03:53:04.399Z,997.71
2017-04-15T03:54:04.434Z,997.67
2017-04-15T03:55:04.471Z,997.67
2017-04-15T03:56:04.505Z,997.64
2017-04-15T03:57:04.541Z,997.66
2017-04-15T03:58:04.578Z,997.62
2017-04-15T03:59:04.613Z,997.62
2017-04-15T04:00:04.648Z,997.56
2017-04-15T04:01:04.684Z,997.62
2017-04-15T04:02:04.719Z,997.53
2017-04-15T04:03:04.756Z,997.57
2017-04-15T04:04:04.793Z,997.57
2017-04-15T04:05:04.829Z,997.59
2017-04-15T04:06:04.863Z,997.6
2017-04-15T04:07:04.900Z,997.56
2017-04-15T04:08:04.935Z,997.61
2017-04-15T04:09:04.971Z,997.57
2017-04-15T04:10:05.006Z,997.57
2017-04-15T04:11:05.043Z,997.6
2017-04-15T04:12:05.079Z,997.58
2017-04-15T04:13:05.114Z,997.56
2017-04-15T04:14:05.150Z,997.55
2017-04-15T04:15:05.186Z,997.55
2017-04-15T04:16:05.220Z,997.56
2017-04-15T04:17:05.257Z,997.54
2017-04-15T04:18:05.294Z,997.53
2017-04-15T04:19:05.330Z,997.57
2017-04-15T04:20:05.365Z,997.56
2017-04-15T04:21:05.400Z,997.56
2017-04-15T04:22:05.436Z,997.57
2017-04-15T04:23:05.472Z,997.58
2017-04-15T04:24:05.507Z,997.57
2017-04-15T04:25:05.545Z,997.52
2017-04-15T04:26:05.579Z,997.55
2017-04-15T04:27:05.616Z,997.56
2017-04-15T04:28:05.651Z,997.52
2017-04-15T04:29:05.687Z,997.52
2017-04-15T04:30:05.722Z,997.55
2017-04-15T04:31:05.759Z,997.53
2017-04-15T04:32:05.794Z,997.48
2017-04-15T04:33:05.850Z,997.48
2017-04-15T04:34:05.866Z,997.51
2017-04-15T04:35:05.900Z,997.47
2017-04-15T04:36:05.937Z,997.47
2017-04-15T04:37:05.973Z,997.42
2017-04-15T04:38:06.018Z,997.46
2017-04-15T04:39:06.057Z,997.44
2017-04-15T04:40:06.089Z,997.47
2017-04-15T04:41:06.116Z,997.47
2017-04-15T04:42:06.162Z,997.43
2017-04-15T04:43:06.193Z,997.39
2017-04-15T04:44:06.225Z,997.44
2017-04-15T04:45:06.261Z,997.42
2017-04-15T04:46:06.297Z,997.41
2017-04-15T04:47:06.339Z,997.38
2017-04-15T04:48:06.368Z,997.37
2017-04-15T04:49:06.405Z,997.36
2017-04-15T04:50:06.440Z,997.36
2017-04-15T04:51:06.476Z,997.35
2017-04-15T04:52:06.512Z,997.33
2017-04-15T04:53:06.547Z,997.32
2017-04-15T04:54:06.583Z,997.33
2017-04-15T04:55:06.620Z,997.33
2017-04-15T04:56:06.657Z,997.31
2017-04-15T04:57:06.690Z,997.33
2017-04-15T04:58:06.726Z,997.32
2017-04-15T04:59:06.764Z,997.3
2017-04-15T05:00:06.800Z,997.31
2017-04-15T05:01:06.834Z,997.3
2017-04-15T05:02:06.871Z,997.28
2017-04-15T05:03:06.906Z,997.31
2017-04-15T05:04:06.942Z,997.3
2017-04-15T05:05:06.979Z,997.27
2017-04-15T05:06:07.014Z,997.27
2017-04-15T05:07:07.051Z,997.27
2017-04-15T05:08:07.086Z,997.22
2017-04-15T05:09:07.124Z,997.2
2017-04-15T05:10:07.158Z,997.2
2017-04-15T05:11:07.195Z,997.21
2017-04-15T05:12:07.229Z,997.18
2017-04-15T05:13:07.267Z,997.16
2017-04-15T05:14:07.302Z,997.22
2017-04-15T05:15:07.337Z,997.21
2017-04-15T05:16:07.373Z,997.17
2017-04-15T05:17:07.409Z,997.19
2017-04-15T05:18:07.445Z,997.17
2017-04-15T05:19:07.480Z,997.17
2017-04-15T05:20:07.518Z,997.11
2017-04-15T05:21:07.553Z,997.13
2017-04-15T05:22:07.589Z,997.1
2017-04-15T05:23:07.627Z,997.08
2017-04-15T05:24:07.673Z,997.09
2017-04-15T05:25:07.696Z,997.12
2017-04-15T05:26:07.732Z,997.13
2017-04-15T05:27:07.768Z,997.19
2017-04-15T05:28:07.805Z,997.15
2017-04-15T05:29:07.840Z,997.14
2017-04-15T05:30:07.874Z,997.12
2017-04-15T05:31:07.912Z,997.14
2017-04-15T05:32:07.947Z,997.15
2017-04-15T05:33:07.984Z,997.13
2017-04-15T05:34:08.019Z,997.13
2017-04-15T05:35:08.055Z,997.15
2017-04-15T05:36:08.092Z,997.1
2017-04-15T05:37:08.127Z,997.15
2017-04-15T05:38:08.163Z,997.16
2017-04-15T05:39:08.203Z,997.13
2017-04-15T05:40:08.237Z,997.16
2017-04-15T05:41:08.271Z,997.14
2017-04-15T05:42:08.308Z,997.15
2017-04-15T05:43:08.346Z,997.13
2017-04-15T05:44:08.383Z,997.18
2017-04-15T05:45:08.418Z,997.14
2017-04-15T05:46:08.454Z,997.18
2017-04-15T05:47:08.491Z,997.16
2017-04-15T05:48:08.527Z,997.16
2017-04-15T05:49:08.565Z,997.18
2017-04-15T05:50:08.607Z,997.2
2017-04-15T05:51:08.640Z,997.17
2017-04-15T05:52:08.674Z,997.09
2017-04-15T05:53:08.712Z,997.13
2017-04-15T05:54:08.748Z,997.1
2017-04-15T05:55:08.785Z,997.11
2017-04-15T05:56:08.826Z,997.14
2017-04-15T05:57:08.860Z,997.1
2017-04-15T05:58:08.899Z,997.1
2017-04-15T05:59:08.934Z,997.08
2017-04-15T06:00:08.971Z,997.08
2017-04-15T06:01:09.022Z,997.07
2017-04-15T06:02:09.047Z,997.08
2017-04-15T06:03:09.082Z,997.09
2017-04-15T06:04:09.120Z,997.06
2017-04-15T06:05:09.161Z,997.05
2017-04-15T06:06:09.194Z,997.05
2017-04-15T06:07:09.230Z,997.04
2017-04-15T06:08:09.268Z,997.01
2017-04-15T06:09:09.303Z,997.02
2017-04-15T06:10:09.339Z,997
2017-04-15T06:11:09.377Z,997
2017-04-15T06:12:09.419Z,996.96
2017-04-15T06:13:09.450Z,996.99
2017-04-15T06:14:09.488Z,996.97
2017-04-15T06:15:09.525Z,996.97
2017-04-15T06:16:09.562Z,996.99
2017-04-15T06:17:09.598Z,996.99
2017-04-15T06:18:09.636Z,996.99
2017-04-15T06:19:09.673Z,997.01
2017-04-15T06:20:09.710Z,996.95
2017-04-15T06:21:09.746Z,996.92
2017-04-15T06:22:09.783Z,996.96
2017-04-15T06:23:09.820Z,996.94
2017-04-15T06:24:09.868Z,996.95
2017-04-15T06:25:09.895Z,996.94
2017-04-15T06:26:09.931Z,996.94
2017-04-15T06:27:09.969Z,996.91
2017-04-15T06:28:10.005Z,996.9
2017-04-15T06:29:10.043Z,996.86
2017-04-15T06:30:10.081Z,996.86
2017-04-15T06:31:10.118Z,996.87
2017-04-15T06:32:10.155Z,996.88
2017-04-15T06:33:10.193Z,996.88
2017-04-15T06:34:10.232Z,996.86
2017-04-15T06:35:10.269Z,996.83
2017-04-15T06:36:10.308Z,996.9
2017-04-15T06:37:10.346Z,996.85
2017-04-15T06:38:10.387Z,996.86
2017-04-15T06:39:10.425Z,996.85
2017-04-15T06:40:10.466Z,996.86
2017-04-15T06:41:10.505Z,996.86
2017-04-15T06:42:10.544Z,996.88
2017-04-15T06:43:10.585Z,996.91
2017-04-15T06:44:10.625Z,996.86
2017-04-15T06:45:10.666Z,996.83
2017-04-15T06:46:10.707Z,996.81
2017-04-15T06:47:10.746Z,996.81
2017-04-15T06:48:10.788Z,996.82
2017-04-15T06:49:10.829Z,996.78
2017-04-15T06:50:10.869Z,996.79
2017-04-15T06:51:10.910Z,996.77
2017-04-15T06:52:10.951Z,996.79
2017-04-15T06:53:10.993Z,996.77
2017-04-15T06:54:11.035Z,996.8
2017-04-15T06:55:11.077Z,996.79
2017-04-15T06:56:11.119Z,996.8
2017-04-15T06:57:11.161Z,996.79
2017-04-15T06:58:11.203Z,996.78
2017-04-15T06:59:11.246Z,996.74
2017-04-15T07:00:11.287Z,996.79
2017-04-15T07:01:11.328Z,996.71
2017-04-15T07:02:11.372Z,996.7
2017-04-15T07:03:11.414Z,996.74
2017-04-15T07:04:11.458Z,996.7
2017-04-15T07:05:11.499Z,996.72
2017-04-15T07:06:11.542Z,996.69
2017-04-15T07:07:11.585Z,996.69
2017-04-15T07:08:11.629Z,996.66
2017-04-15T07:09:11.671Z,996.67
2017-04-15T07:10:11.715Z,996.7
2017-04-15T07:11:11.757Z,996.69
2017-04-15T07:12:11.799Z,996.71
2017-04-15T07:13:11.843Z,996.7
2017-04-15T07:14:11.887Z,996.72
2017-04-15T07:15:11.930Z,996.68
2017-04-15T07:16:11.972Z,996.7
2017-04-15T07:17:12.016Z,996.73
2017-04-15T07:18:12.059Z,996.67
2017-04-15T07:19:12.104Z,996.71
2017-04-15T07:20:12.147Z,996.71
2017-04-15T07:21:12.190Z,996.72
2017-04-15T07:22:12.234Z,996.76
2017-04-15T07:23:12.277Z,996.75
2017-04-15T07:24:12.322Z,996.68
2017-04-15T07:25:12.366Z,996.71
2017-04-15T07:26:12.409Z,996.74
2017-04-15T07:27:12.451Z,996.7
2017-04-15T07:28:12.495Z,996.67
2017-04-15T07:29:12.539Z,996.7
2017-04-15T07:30:12.583Z,996.7
2017-04-15T07:31:12.626Z,996.69
2017-04-15T07:32:12.669Z,996.69
2017-04-15T07:33:12.713Z,996.7
2017-04-15T07:34:12.756Z,996.71
2017-04-15T07:35:12.803Z,996.65
2017-04-15T07:36:12.845Z,996.59
2017-04-15T07:37:12.889Z,996.64
2017-04-15T07:38:12.931Z,996.61
2017-04-15T07:39:12.978Z,996.61
2017-04-15T07:40:13.021Z,996.56
2017-04-15T07:41:13.065Z,996.55
2017-04-15T07:42:13.110Z,996.57
2017-04-15T07:43:13.155Z,996.61
2017-04-15T07:44:13.199Z,996.64
2017-04-15T07:45:13.242Z,996.61
2017-04-15T07:46:13.290Z,996.59
2017-04-15T07:47:13.333Z,996.54
2017-04-15T07:48:13.377Z,996.53
2017-04-15T07:49:13.420Z,996.55
2017-04-15T07:50:13.465Z,996.57
2017-04-15T07:51:13.509Z,996.55
2017-04-15T07:52:13.552Z,996.64
2017-04-15T07:53:13.597Z,996.63
2017-04-15T07:54:13.641Z,996.62
2017-04-15T07:55:13.683Z,996.69
2017-04-15T07:56:13.728Z,996.75
2017-04-15T07:57:13.769Z,996.73
2017-04-15T07:58:13.813Z,996.73
2017-04-15T07:59:13.856Z,996.65
2017-04-15T08:00:13.900Z,996.72
2017-04-15T08:01:13.942Z,996.75
2017-04-15T08:02:13.986Z,996.81
2017-04-15T08:03:14.029Z,996.82
2017-04-15T08:04:14.072Z,996.8
2017-04-15T08:05:14.115Z,996.7
2017-04-15T08:06:14.158Z,996.76
2017-04-15T08:07:14.198Z,996.69
2017-04-15T08:08:14.244Z,996.77
2017-04-15T08:09:14.285Z,996.81
2017-04-15T08:10:14.328Z,996.8
2017-04-15T08:11:14.370Z,996.84
2017-04-15T08:12:14.411Z,996.96
2017-04-15T08:13:14.469Z,996.8
2017-04-15T08:14:14.497Z,996.81
2017-04-15T08:15:14.539Z,996.9
2017-04-15T08:16:14.581Z,996.85
2017-04-15T08:17:14.624Z,996.82
2017-04-15T08:18:14.666Z,996.87
2017-04-15T08:19:14.710Z,996.86
2017-04-15T08:20:14.753Z,996.89
2017-04-15T08:21:14.798Z,996.78
2017-04-15T08:22:14.841Z,996.84
2017-04-15T08:23:14.909Z,996.8
2017-04-15T08:24:14.928Z,996.84
2017-04-15T08:25:14.972Z,996.83
2017-04-15T08:26:15.016Z,996.83
2017-04-15T08:27:15.059Z,996.78
2017-04-15T08:28:15.111Z,996.86
2017-04-15T08:29:15.149Z,996.84
2017-04-15T08:30:15.195Z,996.83
2017-04-15T08:31:15.243Z,996.81
2017-04-15T08:32:15.283Z,996.87
2017-04-15T08:33:15.328Z,996.93
2017-04-15T08:34:15.373Z,996.91
2017-04-15T08:35:15.420Z,996.95
2017-04-15T08:36:15.464Z,996.87
2017-04-15T08:37:15.510Z,996.83
2017-04-15T08:38:15.556Z,996.84
2017-04-15T08:39:15.602Z,996.8
2017-04-15T08:40:15.648Z,996.77
2017-04-15T08:41:15.694Z,996.75
2017-04-15T08:42:15.741Z,996.79
2017-04-15T08:43:15.787Z,996.76
2017-04-15T08:44:15.834Z,996.74
2017-04-15T08:45:15.882Z,996.69
2017-04-15T08:46:15.926Z,996.62
2017-04-15T08:47:15.972Z,996.61
2017-04-15T08:48:16.018Z,996.68
2017-04-15T08:49:16.065Z,996.66
2017-04-15T08:50:16.112Z,996.66
2017-04-15T08:51:16.157Z,996.74
2017-04-15T08:52:16.203Z,996.68
2017-04-15T08:53:16.249Z,996.63
2017-04-15T08:54:16.293Z,996.66
2017-04-15T08:55:16.337Z,996.66
2017-04-15T08:56:16.384Z,996.61
2017-04-15T08:57:16.428Z,996.64
2017-04-15T08:58:16.471Z,996.63
2017-04-15T08:59:16.515Z,996.57
2017-04-15T09:00:16.560Z,996.6
2017-04-15T09:01:16.604Z,996.59
2017-04-15T09:02:16.647Z,996.58
2017-04-15T09:03:16.690Z,996.56
2017-04-15T09:04:16.733Z,996.66
2017-04-15T09:05:16.777Z,996.66
2017-04-15T09:06:16.818Z,996.75
2017-04-15T09:07:16.861Z,996.72
2017-04-15T09:08:16.905Z,996.65
2017-04-15T09:09:16.946Z,996.74
2017-04-15T09:10:16.988Z,996.64
2017-04-15T09:11:17.031Z,996.67
2017-04-15T09:12:17.076Z,996.6
2017-04-15T09:13:17.116Z,996.65
2017-04-15T09:14:17.159Z,996.64
2017-04-15T09:15:17.203Z,996.69
2017-04-15T09:16:17.243Z,996.55
2017-04-15T09:17:17.284Z,996.57
2017-04-15T09:18:17.327Z,996.58
2017-04-15T09:19:17.370Z,996.59
2017-04-15T09:20:17.410Z,996.59
2017-04-15T09:21:17.451Z,996.55
2017-04-15T09:22:17.494Z,996.51
2017-04-15T09:23:17.535Z,996.42
2017-04-15T09:24:17.576Z,996.47
2017-04-15T09:25:17.619Z,996.53
2017-04-15T09:26:17.668Z,996.45
2017-04-15T09:27:17.700Z,996.44
2017-04-15T09:28:17.741Z,996.52
2017-04-15T09:29:17.783Z,996.48
2017-04-15T09:30:17.824Z,996.53
2017-04-15T09:31:17.866Z,996.47
2017-04-15T09:32:17.913Z,996.32
2017-04-15T09:33:17.945Z,996.35
2017-04-15T09:34:17.985Z,996.43
2017-04-15T09:35:18.027Z,996.42
2017-04-15T09:36:18.066Z,996.41
2017-04-15T09:37:18.105Z,996.46
2017-04-15T09:38:18.145Z,996.37
2017-04-15T09:39:18.186Z,996.36
2017-04-15T09:40:18.226Z,996.2
2017-04-15T09:41:18.265Z,996.35
2017-04-15T09:42:18.304Z,996.32
2017-04-15T09:43:18.343Z,996.42
2017-04-15T09:44:18.390Z,996.34
2017-04-15T09:45:18.426Z,996.32
2017-04-15T09:46:18.464Z,996.24
2017-04-15T09:47:18.504Z,996.45
2017-04-15T09:48:18.544Z,996.36
2017-04-15T09:49:18.583Z,996.29
2017-04-15T09:50:18.622Z,996.37
2017-04-15T09:51:18.662Z,996.34
2017-04-15T09:52:18.721Z,996.27
2017-04-15T09:53:18.743Z,996.3
2017-04-15T09:54:18.779Z,996.2
2017-04-15T09:55:18.820Z,996.3
2017-04-15T09:56:18.858Z,996.24
2017-04-15T09:57:18.898Z,996.32
2017-04-15T09:58:18.938Z,996.24
2017-04-15T09:59:18.978Z,996.25
2017-04-15T10:00:19.017Z,996.3
2017-04-15T10:01:19.055Z,996.22
2017-04-15T10:02:19.095Z,996.26
2017-04-15T10:03:19.136Z,996.32
2017-04-15T10:04:19.174Z,996.23
2017-04-15T10:05:19.215Z,996.11
2017-04-15T10:06:19.256Z,996.21
2017-04-15T10:07:19.299Z,996.12
2017-04-15T10:08:19.337Z,996.05
2017-04-15T10:09:19.376Z,996.14
2017-04-15T10:10:19.417Z,996.08
2017-04-15T10:11:19.456Z,996.11
2017-04-15T10:12:19.496Z,996.26
2017-04-15T10:13:19.538Z,996.2
2017-04-15T10:14:19.578Z,996.13
2017-04-15T10:15:19.619Z,996.18
2017-04-15T10:16:19.661Z,996.24
2017-04-15T10:17:19.702Z,996.04
2017-04-15T10:18:19.742Z,996.12
2017-04-15T10:19:19.782Z,996.03
2017-04-15T10:20:19.822Z,996.11
2017-04-15T10:21:19.863Z,996.14
2017-04-15T10:22:19.902Z,996.06
2017-04-15T10:23:19.942Z,996.14
2017-04-15T10:24:19.986Z,996.03
2017-04-15T10:25:20.024Z,996.04
2017-04-15T10:26:20.065Z,996.04
2017-04-15T10:27:20.106Z,996.09
2017-04-15T10:28:20.145Z,996.08
2017-04-15T10:29:20.186Z,995.94
2017-04-15T10:30:20.226Z,995.99
2017-04-15T10:31:20.266Z,995.97
2017-04-15T10:32:20.307Z,995.94
2017-04-15T10:33:20.346Z,995.96
2017-04-15T10:34:20.405Z,995.99
2017-04-15T10:35:20.428Z,995.91
2017-04-15T10:36:20.468Z,996.01
2017-04-15T10:37:20.510Z,995.89
2017-04-15T10:38:20.553Z,995.95
2017-04-15T10:39:20.591Z,995.94
2017-04-15T10:40:20.631Z,995.91
2017-04-15T10:41:20.671Z,995.83
2017-04-15T10:42:20.712Z,996.01
2017-04-15T10:43:20.753Z,995.89
2017-04-15T10:44:20.793Z,995.84
2017-04-15T10:45:20.834Z,995.94
2017-04-15T10:46:20.875Z,995.91
2017-04-15T10:47:20.916Z,995.79
2017-04-15T10:48:20.957Z,995.84
2017-04-15T10:49:20.997Z,995.91
2017-04-15T10:50:21.040Z,995.91
2017-04-15T10:51:21.081Z,995.92
2017-04-15T10:52:21.122Z,995.89
2017-04-15T10:53:21.165Z,995.95
2017-04-15T10:54:21.206Z,995.9
2017-04-15T10:55:21.247Z,995.92
2017-04-15T10:56:21.288Z,995.85
2017-04-15T10:57:21.331Z,995.92
2017-04-15T10:58:21.371Z,995.81
2017-04-15T10:59:21.410Z,995.77
2017-04-15T11:00:21.450Z,995.79
2017-04-15T11:01:21.493Z,995.84
2017-04-15T11:02:21.533Z,995.71
2017-04-15T11:03:21.574Z,995.68
2017-04-15T11:04:21.614Z,995.65
2017-04-15T11:05:21.654Z,995.68
2017-04-15T11:06:21.694Z,995.62
2017-04-15T11:07:21.735Z,995.69
2017-04-15T11:08:21.777Z,995.57
2017-04-15T11:09:21.816Z,995.62
2017-04-15T11:10:21.855Z,995.63
2017-04-15T11:11:21.894Z,995.61
2017-04-15T11:12:21.935Z,995.55
2017-04-15T11:13:21.975Z,995.62
2017-04-15T11:14:22.015Z,995.52
2017-04-15T11:15:22.054Z,995.53
2017-04-15T11:16:22.096Z,995.5
2017-04-15T11:17:22.135Z,995.47
2017-04-15T11:18:22.177Z,995.56
2017-04-15T11:19:22.216Z,995.52
2017-04-15T11:20:22.257Z,995.39
2017-04-15T11:21:22.295Z,995.37
2017-04-15T11:22:22.338Z,995.43
2017-04-15T11:23:22.384Z,995.42
2017-04-15T11:24:22.418Z,995.3
2017-04-15T11:25:22.460Z,995.36
2017-04-15T11:26:22.500Z,995.38
2017-04-15T11:27:22.539Z,995.35
2017-04-15T11:28:22.579Z,995.37
2017-04-15T11:29:22.620Z,995.32
2017-04-15T11:30:22.661Z,995.37
2017-04-15T11:31:22.701Z,995.47
2017-04-15T11:32:22.741Z,995.3
2017-04-15T11:33:22.781Z,995.29
2017-04-15T11:34:22.821Z,995.3
2017-04-15T11:35:22.861Z,995.37
2017-04-15T11:36:22.902Z,995.26
2017-04-15T11:37:22.942Z,995.27
2017-04-15T11:38:22.983Z,995.29
2017-04-15T11:39:23.021Z,995.28
2017-04-15T11:40:23.063Z,995.34
2017-04-15T11:41:23.103Z,995.23
2017-04-15T11:42:23.144Z,995.35
2017-04-15T11:43:23.185Z,995.32
2017-04-15T11:44:23.238Z,995.23
2017-04-15T11:45:23.265Z,995.32
2017-04-15T11:46:23.304Z,995.39
2017-04-15T11:47:23.546Z,995.41
2017-04-15T11:48:23.386Z,995.26
2017-04-15T11:49:23.426Z,995.36
2017-04-15T11:50:23.464Z,995.33
2017-04-15T11:51:23.503Z,995.35
2017-04-15T11:52:23.544Z,995.33
2017-04-15T11:53:23.584Z,995.33
2017-04-15T11:54:23.623Z,995.4
2017-04-15T11:55:23.663Z,995.35
2017-04-15T11:56:23.705Z,995.39
2017-04-15T11:57:23.746Z,995.33
2017-04-15T11:58:23.782Z,995.4
2017-04-15T11:59:23.823Z,995.29
2017-04-15T12:00:23.862Z,995.41
2017-04-15T12:01:23.901Z,995.51
2017-04-15T12:02:23.941Z,995.49
2017-04-15T12:03:23.980Z,995.46
2017-04-15T12:04:24.021Z,995.35
2017-04-15T12:05:24.061Z,995.45
2017-04-15T12:06:24.100Z,995.48
2017-04-15T12:07:24.140Z,995.51
2017-04-15T12:08:24.179Z,995.53
2017-04-15T12:09:24.217Z,995.57
2017-04-15T12:10:24.258Z,995.55
2017-04-15T12:11:24.304Z,995.62
2017-04-15T12:12:24.338Z,995.55
2017-04-15T12:13:24.377Z,995.57
2017-04-15T12:14:24.419Z,995.59
2017-04-15T12:15:24.456Z,995.55
2017-04-15T12:16:24.502Z,995.47
2017-04-15T12:17:24.533Z,995.53
2017-04-15T12:18:24.575Z,995.53
2017-04-15T12:19:24.614Z,995.53
2017-04-15T12:20:24.654Z,995.6
2017-04-15T12:21:24.693Z,995.55
2017-04-15T12:22:24.734Z,995.44
2017-04-15T12:23:24.771Z,995.54
2017-04-15T12:24:24.810Z,995.51
2017-04-15T12:25:24.849Z,995.48
2017-04-15T12:26:24.890Z,995.54
2017-04-15T12:27:24.927Z,995.48
2017-04-15T12:28:24.967Z,995.5
2017-04-15T12:29:25.006Z,995.54
2017-04-15T12:30:25.044Z,995.51
2017-04-15T12:31:25.084Z,995.49
2017-04-15T12:32:25.121Z,995.54